Active alerts


No alerts

Thunder radar more information blitzortung!


Rain radar  rain snow radar


Visit our other weather sites:

Template documentation
and downloads

And another site



Nearby METAR Reports

   
KFUL - Anaheim, CA
Updated: Mar 4 2024 4:53 pm
Clear  
Clear  
   Wind: South 7 mph
Wind: South 7 mph
Temperature: 60.8°F
Dew Point: 41°F
Humidity: 48%
Barometer: 30.05 inHg
Clouds: Clear
Visibility: 10 mi
Cloud details: Clear
KFUL 050053Z 17006KT 10SM CLR 16/05 A3005 RMK AO2 SLP176 T01560050
KSFO - San Francisco, CA
Updated: Mar 4 2024 4:56 pm
Mostly Cloudy  
Mostly Cloudy  
   Wind: SSW 10 mph
Wind: SSW 10 mph
Temperature: 55.4°F
Dew Point: 42.8°F
Humidity: 63%
Barometer: 30.11 inHg
Clouds: Mostly Cloudy
Visibility: 10 mi
Cloud details: Few Clouds 914 m,
Partly Cloudy 1036 m,
Mostly Cloudy 6096 m
KSFO 050056Z 21009KT 10SM FEW030 SCT034 BKN200 13/06 A3011 RMK AO2 SLP195 T01280061 $
KSMF - Sacramento, CA
Updated: Mar 4 2024 4:53 pm
Mostly Cloudy  
Mostly Cloudy  
   Wind: South 6 mph
Wind: South 6 mph
Temperature: 55.4°F
Dew Point: 41°F
Humidity: 59%
Barometer: 30.1 inHg
Clouds: Mostly Cloudy
Visibility: 10 mi
Cloud details: Mostly Cloudy 1463 m,
Mostly Cloudy 2438 m
KSMF 050053Z 18005KT 10SM BKN048 BKN080 13/05 A3010 RMK AO2 SLP193 T01330050
KLAS - Las Vegas, NV
Updated: Mar 4 2024 4:56 pm
Mostly Cloudy  
Mostly Cloudy  
   Wind: South 6 mph
Wind: South 6 mph
Temperature: 62.6°F
Dew Point: 24.8°F
Humidity: 24%
Barometer: 29.9 inHg
Clouds: Mostly Cloudy
Visibility: 10 mi
Cloud details: Mostly Cloudy 6706 m,
Mostly Cloudy 7620 m
KLAS 050056Z 19005KT 10SM BKN220 BKN250 17/M04 A2990 RMK AO2 SLP120 T01671044
  

Script developed by  Saratoga-weather.org Adapted for the template by  Weerstation Leuven

You find our weather info also at:

Weather Underground

Southwestern Weather Network

Citizen Weather Observer Program (CWOP)

Equipment we use:

Weather-station
Davis VP2

Weather-program
Weather Display

Davis VP2

Weather Display


USA Weather Finder